Time;durP1;ratioP1;P1;durP2;ratioP2;P2;SDS_P1;SDS_P2;PMS_P1;PMS_P2;Temp;Humidity;BMP_temperature;BMP_pressure;BME280_temperature;BME280_humidity;BME280_pressure;Samples;Min_cycle;Max_cycle;Signal;HPM_P1;HPM_P2
2022/11/11 04:10:38;;;;;;;0.70;0.60;;;8.10;80.10;;;;;;5055007;28;20402;-75
2022/11/11 04:16:08;;;;;;;0.77;0.77;;;8.10;80.10;;;;;;5056288;28;20406;-75
2022/11/11 04:26:48;;;;;;;0.70;0.70;;;8.10;80.20;;;;;;5054458;28;20817;-75
2022/11/11 04:29:28;;;;;;;0.70;0.70;;;8.10;80.00;;;;;;5054711;28;20479;-76
2022/11/11 04:34:43;;;;;;;0.70;0.70;;;8.20;80.10;;;;;;5054793;28;20440;-75
2022/11/11 04:37:10;;;;;;;0.73;0.73;;;8.20;80.10;;;;;;5054662;28;20450;-75
2022/11/11 04:42:21;;;;;;;0.80;0.80;;;8.30;79.70;;;;;;5054556;28;20449;-75
2022/11/11 04:47:32;;;;;;;0.70;0.67;;;8.10;79.70;;;;;;5054478;28;20485;-75
2022/11/11 04:50:00;;;;;;;0.60;0.60;;;8.10;79.90;;;;;;5054381;28;20454;-75
2022/11/11 04:52:28;;;;;;;0.70;0.70;;;8.10;81.40;;;;;;5054265;28;20471;-75
2022/11/11 04:57:41;;;;;;;0.70;0.70;;;8.00;86.60;;;;;;5054330;28;20502;-75
2022/11/11 05:00:11;;;;;;;0.80;0.77;;;8.00;86.50;;;;;;5054171;28;20531;-75
2022/11/11 05:05:24;;;;;;;0.70;0.70;;;8.10;84.80;;;;;;5054207;28;20469;-76
2022/11/11 05:10:35;;;;;;;0.60;0.60;;;8.30;83.20;;;;;;5053757;28;20407;-76
2022/11/11 05:21:23;;;;;;;0.63;0.63;;;8.30;81.20;;;;;;5054010;28;20542;-75
2022/11/11 05:26:35;;;;;;;0.80;0.80;;;8.40;81.00;;;;;;5053823;28;20937;-75
2022/11/11 05:29:02;;;;;;;0.60;0.60;;;8.40;81.00;;;;;;5053573;28;20486;-76
2022/11/11 05:31:29;;;;;;;0.70;0.70;;;8.40;80.90;;;;;;5053573;28;20477;-76
2022/11/11 05:33:56;;;;;;;0.73;0.73;;;8.40;80.80;;;;;;5053633;28;20825;-75
2022/11/11 05:36:24;;;;;;;0.63;0.63;;;8.40;80.80;;;;;;5053576;28;20446;-75
2022/11/11 05:38:51;;;;;;;0.70;0.70;;;8.40;80.60;;;;;;5053549;28;20443;-76
2022/11/11 05:41:17;;;;;;;0.80;0.70;;;8.50;80.10;;;;;;5053456;28;20466;-75
2022/11/11 05:43:44;;;;;;;0.80;0.80;;;8.40;80.10;;;;;;5053490;28;20461;-75
2022/11/11 05:46:11;;;;;;;0.80;0.70;;;8.40;80.20;;;;;;5053124;28;20933;-75
2022/11/11 05:49:14;;;;;;;0.70;0.70;;;8.40;79.90;;;;;;5053264;28;20485;-75
2022/11/11 05:51:29;;;;;;;0.70;0.70;;;8.40;79.90;;;;;;5053071;28;20562;-76
2022/11/11 05:53:58;;;;;;;0.70;0.70;;;8.40;80.10;;;;;;5053712;28;20435;-76
2022/11/11 05:56:25;;;;;;;0.70;0.70;;;8.40;80.60;;;;;;5053359;28;20470;-75
2022/11/11 05:58:52;;;;;;;0.60;0.60;;;8.40;80.80;;;;;;5053327;28;20473;-75
2022/11/11 06:01:18;;;;;;;0.70;0.70;;;8.30;80.80;;;;;;5053148;28;20502;-75
2022/11/11 06:03:45;;;;;;;0.80;0.80;;;8.30;81.30;;;;;;5054171;28;20427;-75
2022/11/11 06:06:12;;;;;;;0.60;0.60;;;8.30;81.80;;;;;;5053242;28;20442;-75
2022/11/11 06:08:41;;;;;;;1.20;0.77;;;8.40;81.80;;;;;;5053158;28;20487;-76
2022/11/11 06:11:08;;;;;;;0.70;0.60;;;8.40;81.80;;;;;;5053147;28;20842;-75
2022/11/11 06:13:34;;;;;;;0.63;0.63;;;8.40;81.50;;;;;;5053204;28;20450;-76
2022/11/11 06:16:02;;;;;;;0.70;0.70;;;8.40;81.40;;;;;;5053151;28;20802;-75
2022/11/11 06:18:28;;;;;;;0.70;0.70;;;8.40;81.40;;;;;;5052862;28;20796;-75
2022/11/11 06:20:55;;;;;;;0.70;0.70;;;8.50;81.40;;;;;;5053010;28;20463;-76
2022/11/11 06:23:22;;;;;;;0.67;0.67;;;8.50;81.50;;;;;;5053064;28;20447;-76
2022/11/11 06:28:35;;;;;;;0.80;0.80;;;8.60;81.50;;;;;;5053231;28;20457;-76
2022/11/11 06:31:02;;;;;;;0.80;0.80;;;8.60;81.50;;;;;;5052969;28;20478;-75
2022/11/11 06:33:29;;;;;;;0.90;0.80;;;8.60;81.50;;;;;;5052684;28;20811;-75
2022/11/11 06:35:55;;;;;;;0.70;0.63;;;8.60;81.40;;;;;;5052616;28;20813;-76
2022/11/11 06:38:22;;;;;;;0.70;0.60;;;8.60;81.40;;;;;;5052922;28;20442;-75
2022/11/11 06:40:49;;;;;;;0.80;0.80;;;8.50;81.60;;;;;;5052542;28;20474;-76
2022/11/11 06:43:17;;;;;;;0.70;0.70;;;8.60;81.80;;;;;;5052873;28;20469;-76
2022/11/11 06:45:44;;;;;;;0.87;0.70;;;8.60;81.20;;;;;;5052557;28;20954;-76
2022/11/11 06:48:11;;;;;;;0.70;0.70;;;8.60;80.90;;;;;;5052463;28;20949;-75
2022/11/11 06:50:38;;;;;;;0.70;0.70;;;8.70;80.90;;;;;;5052756;28;20537;-75
2022/11/11 06:53:05;;;;;;;0.70;0.70;;;8.80;80.50;;;;;;5052499;28;20964;-76
2022/11/11 06:55:32;;;;;;;1.10;1.10;;;8.80;80.20;;;;;;5052772;28;20442;-76
2022/11/11 06:58:05;;;;;;;0.97;0.97;;;8.80;79.80;;;;;;5052720;28;20450;-76
2022/11/11 07:00:33;;;;;;;0.80;0.80;;;8.80;79.40;;;;;;5052796;28;20555;-76
2022/11/11 07:02:59;;;;;;;1.00;0.90;;;8.90;79.20;;;;;;5052859;28;20481;-76
2022/11/11 07:05:26;;;;;;;1.10;1.10;;;9.00;79.20;;;;;;5056387;28;20453;-76
2022/11/11 07:07:53;;;;;;;1.00;0.90;;;9.20;79.00;;;;;;5056250;28;20787;-76
2022/11/11 07:10:20;;;;;;;0.80;0.80;;;9.30;78.80;;;;;;5056205;28;20489;-75
2022/11/11 07:12:46;;;;;;;0.87;0.87;;;9.40;78.70;;;;;;5055850;28;21005;-76
2022/11/11 07:15:13;;;;;;;0.90;0.90;;;9.50;78.40;;;;;;5056189;28;20442;-75
2022/11/11 07:17:41;;;;;;;1.00;0.80;;;9.60;77.90;;;;;;5056371;28;20442;-75
2022/11/11 07:20:09;;;;;;;1.00;1.00;;;9.70;77.40;;;;;;5055831;28;20966;-76
2022/11/11 07:22:36;;;;;;;1.50;1.40;;;9.90;77.20;;;;;;5056324;28;20462;-76
2022/11/11 07:25:04;;;;;;;0.70;0.70;;;10.00;76.50;;;;;;5055958;28;20504;-76
2022/11/11 07:27:31;;;;;;;0.87;0.80;;;10.00;77.20;;;;;;5055702;28;20800;-76
2022/11/11 07:29:57;;;;;;;1.47;1.37;;;9.80;78.40;;;;;;5055816;28;20478;-75
2022/11/11 07:32:24;;;;;;;0.90;0.90;;;9.60;79.90;;;;;;5055802;28;20462;-76
2022/11/11 07:34:52;;;;;;;1.10;1.00;;;9.70;79.40;;;;;;5056103;28;20446;-74
2022/11/11 07:37:19;;;;;;;0.80;0.80;;;9.70;78.90;;;;;;5055799;28;20443;-72
2022/11/11 07:39:45;;;;;;;0.70;0.70;;;9.60;79.00;;;;;;5065521;28;20453;-75
2022/11/11 07:42:12;;;;;;;0.90;0.90;;;9.50;79.10;;;;;;5067110;28;20499;-75
2022/11/11 07:44:39;;;;;;;0.80;0.80;;;9.60;79.10;;;;;;5067925;28;20447;-75
2022/11/11 07:47:06;;;;;;;0.80;0.77;;;9.80;78.90;;;;;;5067304;28;20441;-75
2022/11/11 07:49:33;;;;;;;0.70;0.70;;;9.60;79.90;;;;;;5065584;28;20488;-75
2022/11/11 07:52:01;;;;;;;1.00;0.80;;;9.40;80.80;;;;;;5055371;28;20466;-75
2022/11/11 07:54:27;;;;;;;0.80;0.80;;;9.50;81.60;;;;;;5055404;28;20450;-75
2022/11/11 07:56:54;;;;;;;0.70;0.70;;;9.50;81.70;;;;;;5055263;28;20945;-75
2022/11/11 07:59:21;;;;;;;1.07;0.83;;;9.80;81.20;;;;;;5055393;28;20446;-76
2022/11/11 08:01:47;;;;;;;0.70;0.70;;;10.10;80.50;;;;;;5055069;28;20485;-75
2022/11/11 08:04:14;;;;;;;0.70;0.70;;;10.20;80.20;;;;;;5055264;28;20822;-75
2022/11/11 08:06:41;;;;;;;0.70;0.70;;;10.40;80.00;;;;;;5055201;28;20446;-76
2022/11/11 08:09:09;;;;;;;0.70;0.63;;;10.70;79.70;;;;;;5055133;28;20482;-76
2022/11/11 08:14:20;;;;;;;0.70;0.70;;;10.70;79.80;;;;;;5054138;28;20410;-75
2022/11/11 08:16:46;;;;;;;0.70;0.70;;;10.40;80.70;;;;;;5054715;28;20451;-74
2022/11/11 08:19:13;;;;;;;0.87;0.70;;;10.20;81.20;;;;;;5055105;28;20443;-76
2022/11/11 08:21:40;;;;;;;0.97;0.70;;;9.90;82.00;;;;;;5054574;28;20982;-77
2022/11/11 08:24:07;;;;;;;0.80;0.70;;;9.80;82.70;;;;;;5054890;28;20450;-75
2022/11/11 08:26:35;;;;;;;0.60;0.60;;;9.80;82.60;;;;;;5055146;28;20454;-76
2022/11/11 08:29:02;;;;;;;0.70;0.70;;;9.50;84.70;;;;;;5054705;28;21024;-76
2022/11/11 08:31:29;;;;;;;0.70;0.60;;;9.60;86.50;;;;;;5054667;28;20609;-75
2022/11/11 08:33:55;;;;;;;0.70;0.70;;;9.50;84.80;;;;;;5054936;28;20450;-74
2022/11/11 08:36:23;;;;;;;0.87;0.70;;;9.20;85.10;;;;;;5054351;28;20443;-76
2022/11/11 08:38:50;;;;;;;0.60;0.60;;;9.10;86.60;;;;;;5054648;28;20446;-75
2022/11/11 08:41:17;;;;;;;0.70;0.70;;;9.20;86.10;;;;;;5054378;28;20463;-75
2022/11/11 08:43:45;;;;;;;0.70;0.70;;;9.00;86.50;;;;;;5054415;28;20873;-74
2022/11/11 08:46:12;;;;;;;0.60;0.60;;;9.10;86.70;;;;;;5054597;28;20455;-75
2022/11/11 08:48:39;;;;;;;0.70;0.70;;;9.10;87.00;;;;;;5054343;28;20474;-74
2022/11/11 08:51:05;;;;;;;0.70;0.70;;;9.10;87.80;;;;;;5054499;28;20831;-74
2022/11/11 08:53:32;;;;;;;0.80;0.80;;;9.10;87.90;;;;;;5054449;28;20442;-76
2022/11/11 08:56:01;;;;;;;0.63;0.63;;;9.40;87.40;;;;;;5054095;28;20451;-76
2022/11/11 08:58:28;;;;;;;0.70;0.70;;;9.50;87.10;;;;;;5054522;28;20500;-76
2022/11/11 09:00:56;;;;;;;0.60;0.60;;;9.80;86.60;;;;;;5054021;28;20465;-75
2022/11/11 09:03:23;;;;;;;0.60;0.60;;;10.10;85.40;;;;;;5054273;28;20450;-75
2022/11/11 09:05:50;;;;;;;0.80;0.80;;;10.40;84.40;;;;;;5054340;28;20497;-74
2022/11/11 09:08:17;;;;;;;0.70;0.70;;;10.30;84.00;;;;;;5054104;28;20446;-74
2022/11/11 09:10:43;;;;;;;0.70;0.70;;;10.30;84.00;;;;;;5054071;28;20482;-75
2022/11/11 09:13:10;;;;;;;0.63;0.60;;;10.20;84.30;;;;;;5053830;28;20984;-76
2022/11/11 09:15:37;;;;;;;0.80;0.80;;;10.10;85.00;;;;;;5054090;28;20500;-76
2022/11/11 09:18:05;;;;;;;0.70;0.70;;;10.00;85.70;;;;;;5053594;28;20960;-76
2022/11/11 09:20:31;;;;;;;0.70;0.60;;;9.90;86.30;;;;;;5053680;28;20960;-76
2022/11/11 09:22:58;;;;;;;0.80;0.80;;;10.00;86.40;;;;;;5053824;28;20454;-76
2022/11/11 09:25:25;;;;;;;0.73;0.73;;;9.90;86.80;;;;;;5053640;28;20553;-76
2022/11/11 09:27:56;;;;;;;0.70;0.70;;;9.90;87.00;;;;;;5053784;28;20846;-76
2022/11/11 09:30:23;;;;;;;0.70;0.70;;;9.80;86.80;;;;;;5053942;28;20474;-75
2022/11/11 09:32:50;;;;;;;0.80;0.80;;;9.70;87.40;;;;;;5053627;28;20820;-75
2022/11/11 09:35:18;;;;;;;0.70;0.70;;;9.80;87.90;;;;;;5053601;28;20442;-75
2022/11/11 09:37:53;;;;;;;0.70;0.70;;;9.80;87.50;;;;;;5053704;28;20447;-75
2022/11/11 09:40:23;;;;;;;0.70;0.70;;;9.60;88.60;;;;;;5053635;28;20492;-75
2022/11/11 09:43:03;;;;;;;0.70;0.70;;;9.60;89.60;;;;;;5053821;28;20452;-76
2022/11/11 09:45:36;;;;;;;1.03;0.93;;;9.60;89.70;;;;;;5053135;28;20902;-74
2022/11/11 09:48:15;;;;;;;0.70;0.70;;;9.80;89.80;;;;;;5053567;28;20431;-75
2022/11/11 09:50:53;;;;;;;0.70;0.70;;;10.00;89.30;;;;;;5053220;28;20466;-75
2022/11/11 09:53:25;;;;;;;0.70;0.70;;;10.20;88.80;;;;;;5053482;28;20438;-75
2022/11/11 09:55:56;;;;;;;0.70;0.70;;;10.40;88.80;;;;;;5053584;28;20430;-75
2022/11/11 09:58:26;;;;;;;0.70;0.63;;;10.70;88.60;;;;;;5053355;28;20463;-74
2022/11/11 10:01:01;;;;;;;0.60;0.60;;;11.10;84.90;;;;;;5053201;28;20478;-72
2022/11/11 10:03:31;;;;;;;0.80;0.73;;;11.30;83.70;;;;;;5053556;28;20790;-76
2022/11/11 10:06:03;;;;;;;0.80;0.70;;;11.60;84.20;;;;;;5053327;28;20446;-76
2022/11/11 10:08:35;;;;;;;0.70;0.67;;;11.90;83.10;;;;;;5053258;28;20423;-74
2022/11/11 10:11:05;;;;;;;0.70;0.60;;;12.20;81.60;;;;;;5053220;28;20486;-75
2022/11/11 10:13:34;;;;;;;0.70;0.70;;;12.40;80.00;;;;;;5053106;28;20450;-76
2022/11/11 10:16:09;;;;;;;0.90;0.70;;;12.50;79.60;;;;;;5054545;28;20457;-74
2022/11/11 10:18:50;;;;;;;0.60;0.60;;;12.70;79.90;;;;;;5053172;28;20770;-75
2022/11/11 10:21:24;;;;;;;0.67;0.60;;;12.80;80.70;;;;;;5052630;28;20474;-76
2022/11/11 10:23:55;;;;;;;0.77;0.70;;;12.80;79.00;;;;;;5052672;28;20845;-75
2022/11/11 10:26:33;;;;;;;0.60;0.60;;;12.90;79.40;;;;;;5053039;28;20820;-75
2022/11/11 10:29:02;;;;;;;0.80;0.80;;;12.80;79.70;;;;;;5053381;28;20427;-74
2022/11/11 10:31:30;;;;;;;0.80;0.70;;;13.00;79.40;;;;;;5052981;28;20465;-76
2022/11/11 10:34:01;;;;;;;0.83;0.70;;;13.20;79.50;;;;;;5053085;28;20453;-76
2022/11/11 10:36:30;;;;;;;0.70;0.70;;;13.30;78.40;;;;;;5053305;28;20449;-75
2022/11/11 10:39:01;;;;;;;0.77;0.77;;;13.40;78.30;;;;;;5055103;28;20446;-75
2022/11/11 10:41:34;;;;;;;0.93;0.90;;;13.40;77.60;;;;;;5056774;28;20857;-75
2022/11/11 10:44:00;;;;;;;3.33;1.07;;;13.20;77.80;;;;;;5057173;28;20426;-76
2022/11/11 10:46:32;;;;;;;0.70;0.67;;;13.00;78.60;;;;;;5057316;28;20438;-77
2022/11/11 10:49:03;;;;;;;1.10;1.10;;;13.20;78.20;;;;;;5057393;28;20454;-76
2022/11/11 10:51:37;;;;;;;0.70;0.70;;;13.10;78.10;;;;;;5057137;28;20490;-75
2022/11/11 10:54:09;;;;;;;1.07;0.77;;;13.20;78.00;;;;;;5056921;28;20430;-75
2022/11/11 10:56:43;;;;;;;0.70;0.63;;;13.20;77.70;;;;;;5056907;28;20436;-75
2022/11/11 10:59:18;;;;;;;0.70;0.70;;;13.40;77.80;;;;;;5056596;28;20833;-76
2022/11/11 11:01:53;;;;;;;0.70;0.70;;;13.50;77.90;;;;;;5056198;28;20989;-73
2022/11/11 11:04:26;;;;;;;0.80;0.70;;;13.60;77.90;;;;;;5056482;28;20443;-75
2022/11/11 11:06:55;;;;;;;0.70;0.70;;;13.90;77.30;;;;;;5057488;28;20431;-75
2022/11/11 11:09:26;;;;;;;1.27;0.67;;;13.80;77.00;;;;;;5056339;28;20450;-76
2022/11/11 11:11:58;;;;;;;0.80;0.70;;;14.00;76.80;;;;;;5056255;28;20458;-76
2022/11/11 11:14:30;;;;;;;0.70;0.70;;;14.20;76.20;;;;;;5056677;28;20780;-76
2022/11/11 11:17:01;;;;;;;0.73;0.73;;;14.40;76.50;;;;;;5056517;28;20438;-76
2022/11/11 11:19:29;;;;;;;0.60;0.60;;;14.30;76.20;;;;;;5056313;28;20438;-76
2022/11/11 11:21:59;;;;;;;0.70;0.70;;;14.10;76.70;;;;;;5056257;28;20471;-76
2022/11/11 11:24:27;;;;;;;0.70;0.70;;;14.00;75.80;;;;;;5056065;28;20457;-76
2022/11/11 11:26:56;;;;;;;1.17;0.70;;;13.80;76.20;;;;;;5055961;28;20446;-76
2022/11/11 11:29:32;;;;;;;0.60;0.60;;;13.80;76.20;;;;;;5056201;28;20443;-75
2022/11/11 11:32:15;;;;;;;0.80;0.70;;;14.00;76.40;;;;;;5056062;28;20553;-76
2022/11/11 11:34:50;;;;;;;0.70;0.70;;;14.00;75.50;;;;;;5054583;28;20450;-76
2022/11/11 11:37:20;;;;;;;0.70;0.70;;;14.10;75.70;;;;;;5055907;28;20945;-76
2022/11/11 11:39:47;;;;;;;0.60;0.60;;;14.10;76.00;;;;;;5056118;28;20439;-75
2022/11/11 11:42:31;;;;;;;0.63;0.63;;;14.10;75.40;;;;;;5055798;28;20462;-76
2022/11/11 11:45:16;;;;;;;0.70;0.70;;;14.00;75.20;;;;;;5055727;28;20492;-76
2022/11/11 11:47:51;;;;;;;1.13;0.80;;;14.30;74.90;;;;;;5056290;28;20435;-76
2022/11/11 11:50:30;;;;;;;0.80;0.60;;;14.40;75.70;;;;;;5055290;28;20470;-76
2022/11/11 11:53:10;;;;;;;0.80;0.70;;;14.70;74.10;;;;;;5055709;28;20509;-76
2022/11/11 11:55:39;;;;;;;0.70;0.60;;;15.00;73.10;;;;;;5055577;28;20434;-76
2022/11/11 11:58:30;;;;;;;0.70;0.70;;;15.50;71.80;;;;;;5055653;28;20446;-76
2022/11/11 12:01:04;;;;;;;0.60;0.60;;;16.70;69.80;;;;;;5055172;28;20458;-76
2022/11/11 12:03:49;;;;;;;0.60;0.50;;;18.20;65.00;;;;;;5055383;28;20489;-75
2022/11/11 12:06:21;;;;;;;0.63;0.63;;;19.40;63.10;;;;;;5055290;28;20441;-76
2022/11/11 12:09:00;;;;;;;0.70;0.67;;;20.50;60.20;;;;;;5055391;28;20438;-75
2022/11/11 12:11:34;;;;;;;0.90;0.70;;;21.40;57.20;;;;;;5054890;28;20487;-76
2022/11/11 12:14:33;;;;;;;0.60;0.60;;;22.40;54.10;;;;;;5054813;28;20825;-75
2022/11/11 12:17:07;;;;;;;1.00;0.70;;;23.90;52.30;;;;;;5049925;28;20446;-75
2022/11/11 12:19:51;;;;;;;0.60;0.60;;;25.70;48.70;;;;;;5055127;28;20423;-76
2022/11/11 12:22:33;;;;;;;0.60;0.60;;;26.60;46.20;;;;;;5055430;28;20458;-75
2022/11/11 12:25:12;;;;;;;0.60;0.60;;;27.60;44.20;;;;;;5054770;28;20792;-75
2022/11/11 12:27:48;;;;;;;0.80;0.70;;;28.10;42.80;;;;;;5055087;28;20426;-76
2022/11/11 12:30:19;;;;;;;0.70;0.60;;;28.60;43.00;;;;;;5054505;28;20469;-76
2022/11/11 12:33:06;;;;;;;0.70;0.70;;;29.20;41.60;;;;;;5054442;28;20878;-75
2022/11/11 12:35:43;;;;;;;0.60;0.60;;;28.80;42.00;;;;;;5054487;28;20917;-76
2022/11/11 12:38:26;;;;;;;0.70;0.70;;;28.70;41.70;;;;;;5054705;28;20426;-76
2022/11/11 12:41:06;;;;;;;0.63;0.60;;;29.20;41.10;;;;;;5054307;28;20966;-76
2022/11/11 12:43:40;;;;;;;0.70;0.60;;;30.50;39.00;;;;;;5054283;28;21004;-76
2022/11/11 12:46:24;;;;;;;0.70;0.60;;;29.90;39.30;;;;;;5054604;28;20435;-76
2022/11/11 12:49:05;;;;;;;0.60;0.60;;;28.80;41.00;;;;;;5054514;28;20430;-75
2022/11/11 12:51:41;;;;;;;0.60;0.57;;;27.20;42.80;;;;;;5054457;28;20494;-74
2022/11/11 12:54:22;;;;;;;1.50;0.77;;;26.00;45.40;;;;;;5054659;28;20446;-75
2022/11/11 12:57:00;;;;;;;0.60;0.60;;;25.70;47.10;;;;;;5054945;28;20917;-75
2022/11/11 12:59:40;;;;;;;0.80;0.77;;;25.70;46.90;;;;;;5054871;28;20431;-74
2022/11/11 13:02:25;;;;;;;0.70;0.63;;;25.60;47.40;;;;;;5053856;28;20478;-75
2022/11/11 13:05:03;;;;;;;1.03;0.80;;;26.20;47.50;;;;;;5054241;28;20842;-75
2022/11/11 13:07:47;;;;;;;1.43;0.80;;;27.60;45.80;;;;;;5054350;28;20521;-75
2022/11/11 13:10:25;;;;;;;0.73;0.70;;;28.10;44.60;;;;;;5053971;28;20469;-75
2022/11/11 13:13:04;;;;;;;0.80;0.80;;;27.60;44.80;;;;;;5054036;28;20469;-76
2022/11/11 13:15:32;;;;;;;0.90;0.90;;;27.40;45.90;;;;;;5054433;28;20426;-76
2022/11/11 13:18:00;;;;;;;0.87;0.83;;;27.00;46.70;;;;;;5061529;28;20540;-76
2022/11/11 13:20:41;;;;;;;0.90;0.90;;;25.70;48.40;;;;;;5063006;28;20516;-75
2022/11/11 13:23:08;;;;;;;1.00;0.90;;;24.20;51.10;;;;;;5064027;28;20439;-75
2022/11/11 13:25:39;;;;;;;0.80;0.80;;;23.20;53.40;;;;;;5063234;28;20450;-75
2022/11/11 13:28:16;;;;;;;0.87;0.80;;;22.40;54.90;;;;;;5064377;28;20459;-75
2022/11/11 13:30:48;;;;;;;1.03;0.93;;;21.70;56.90;;;;;;5064310;28;20463;-75
2022/11/11 13:33:17;;;;;;;0.90;0.80;;;21.60;57.10;;;;;;5065154;28;20431;-75
2022/11/11 13:35:46;;;;;;;1.00;0.90;;;21.30;57.90;;;;;;5064899;28;20446;-76
2022/11/11 13:38:26;;;;;;;0.90;0.90;;;20.90;59.30;;;;;;5067081;28;20501;-75
2022/11/11 13:40:54;;;;;;;1.47;1.10;;;20.70;59.50;;;;;;5069686;28;20465;-75
2022/11/11 13:43:29;;;;;;;1.80;1.10;;;21.10;59.20;;;;;;5070383;28;20478;-75
2022/11/11 13:45:58;;;;;;;0.80;0.80;;;21.90;57.90;;;;;;5069114;28;20461;-75
2022/11/11 13:48:28;;;;;;;1.20;1.13;;;22.70;55.80;;;;;;5069180;28;20450;-75
2022/11/11 13:51:22;;;;;;;1.10;1.00;;;23.20;54.90;;;;;;5069188;28;20548;-76
2022/11/11 13:53:49;;;;;;;0.90;0.70;;;24.00;53.30;;;;;;5067104;28;20797;-75
2022/11/11 13:56:24;;;;;;;0.83;0.83;;;24.40;52.40;;;;;;5061580;28;20454;-75
2022/11/11 13:58:55;;;;;;;1.27;0.80;;;24.40;52.20;;;;;;5061532;28;20423;-75
2022/11/11 14:01:23;;;;;;;0.80;0.80;;;24.00;52.40;;;;;;5060698;28;20539;-76
2022/11/11 14:04:01;;;;;;;0.80;0.80;;;24.10;52.40;;;;;;5062822;28;20504;-75
2022/11/11 14:06:53;;;;;;;1.03;0.93;;;24.50;52.30;;;;;;5062429;28;20439;-75
2022/11/11 14:10:01;;;;;;;0.77;0.70;;;24.40;51.30;;;;;;5064376;28;20419;-75
2022/11/11 14:12:41;;;;;;;2.20;1.10;;;24.50;51.60;;;;;;5064268;28;20489;-76
2022/11/11 14:15:34;;;;;;;0.70;0.70;;;24.50;51.60;;;;;;5066838;28;20486;-75
2022/11/11 14:18:02;;;;;;;0.90;0.80;;;24.40;51.60;;;;;;5064879;28;20826;-75
2022/11/11 14:20:40;;;;;;;1.20;0.87;;;24.00;52.80;;;;;;5062323;28;20446;-74
2022/11/11 14:23:33;;;;;;;0.83;0.83;;;23.50;53.40;;;;;;5063069;28;20474;-75
2022/11/11 14:26:28;;;;;;;1.23;0.70;;;22.80;54.50;;;;;;5062457;28;20970;-74
2022/11/11 14:28:59;;;;;;;0.80;0.80;;;22.00;56.40;;;;;;5062170;28;20438;-75
2022/11/11 14:32:04;;;;;;;0.70;0.70;;;20.90;58.70;;;;;;5060967;28;21001;-75
2022/11/11 14:35:01;;;;;;;2.20;0.90;;;20.10;61.00;;;;;;5060560;28;20451;-75
2022/11/11 14:37:41;;;;;;;0.90;0.90;;;19.90;61.40;;;;;;5055924;28;20906;-75
2022/11/11 14:40:11;;;;;;;0.80;0.80;;;19.70;62.30;;;;;;5061609;28;20437;-75
2022/11/11 14:42:46;;;;;;;0.80;0.80;;;19.30;63.40;;;;;;5060334;28;21005;-75
2022/11/11 14:45:58;;;;;;;0.70;0.70;;;18.80;64.90;;;;;;5060361;28;20937;-75
2022/11/11 14:49:00;;;;;;;0.80;0.80;;;18.50;65.70;;;;;;5032696;28;20828;-74
2022/11/11 14:51:58;;;;;;;0.80;0.80;;;18.20;66.40;;;;;;5029404;28;20539;-74
2022/11/11 14:54:37;;;;;;;0.80;0.80;;;18.00;67.20;;;;;;5062058;28;20435;-75
2022/11/11 14:57:10;;;;;;;0.90;0.90;;;17.80;67.80;;;;;;5062124;28;20426;-74
2022/11/11 14:59:38;;;;;;;1.03;0.93;;;17.70;68.20;;;;;;5059243;28;20914;-74
2022/11/11 15:02:18;;;;;;;0.80;0.80;;;17.60;68.50;;;;;;5059482;28;20501;-74
2022/11/11 15:04:47;;;;;;;1.10;1.00;;;17.20;68.90;;;;;;5060525;28;20430;-74
2022/11/11 15:07:25;;;;;;;2.60;0.90;;;17.20;69.00;;;;;;5060563;28;20441;-75
2022/11/11 15:10:18;;;;;;;1.10;1.00;;;17.20;69.10;;;;;;5061268;28;20427;-75
2022/11/11 15:13:04;;;;;;;1.40;0.90;;;17.10;69.90;;;;;;5057888;28;21000;-75
2022/11/11 15:15:41;;;;;;;0.97;0.90;;;17.00;70.50;;;;;;5061021;28;20557;-75
2022/11/11 15:18:19;;;;;;;1.00;1.00;;;16.90;71.00;;;;;;5061070;28;20426;-74
2022/11/11 15:21:01;;;;;;;0.90;0.90;;;16.70;71.30;;;;;;5060627;28;20550;-76
2022/11/11 15:23:35;;;;;;;1.00;0.90;;;16.60;71.80;;;;;;5060377;28;20806;-75
2022/11/11 15:26:10;;;;;;;0.90;0.90;;;16.50;72.20;;;;;;5060314;28;20454;-75
2022/11/11 15:29:05;;;;;;;1.40;1.10;;;16.30;72.60;;;;;;5061639;28;20433;-74
2022/11/11 15:31:40;;;;;;;1.10;1.00;;;16.10;72.90;;;;;;5059888;28;20493;-75
2022/11/11 15:34:21;;;;;;;1.40;1.30;;;16.00;73.50;;;;;;5061702;28;20435;-75
2022/11/11 15:36:55;;;;;;;1.50;1.20;;;15.80;73.80;;;;;;5061353;28;20445;-75
2022/11/11 15:39:27;;;;;;;3.23;1.60;;;15.70;74.20;;;;;;5060318;28;20430;-77
2022/11/11 15:41:54;;;;;;;1.50;1.30;;;15.50;74.50;;;;;;5060301;28;20892;-76
2022/11/11 15:44:24;;;;;;;2.03;1.83;;;15.40;74.90;;;;;;5059749;28;20469;-76
2022/11/11 15:46:52;;;;;;;1.53;1.17;;;15.30;75.00;;;;;;5060428;28;20451;-76
2022/11/11 15:49:37;;;;;;;1.47;1.37;;;15.10;75.60;;;;;;5061112;28;20785;-75
2022/11/11 15:52:06;;;;;;;1.43;1.30;;;14.90;75.70;;;;;;5060049;28;20485;-75
2022/11/11 15:54:33;;;;;;;1.30;1.20;;;14.90;75.80;;;;;;5060780;28;20933;-76
2022/11/11 15:57:12;;;;;;;1.00;1.00;;;14.70;76.20;;;;;;5059102;28;20488;-75
2022/11/11 15:59:40;;;;;;;1.57;1.00;;;14.60;76.30;;;;;;5059958;28;20426;-75
2022/11/11 16:02:13;;;;;;;1.30;1.20;;;14.50;76.30;;;;;;5058233;28;20486;-76
2022/11/11 16:04:47;;;;;;;1.97;1.87;;;14.40;76.70;;;;;;5061100;28;20438;-77
2022/11/11 16:07:21;;;;;;;1.80;1.70;;;14.30;76.80;;;;;;5055285;28;20438;-75
2022/11/11 16:09:49;;;;;;;2.40;2.30;;;14.30;76.80;;;;;;5055189;28;20434;-74
2022/11/11 16:12:20;;;;;;;2.20;2.00;;;14.20;76.80;;;;;;5054768;28;20489;-75
2022/11/11 16:14:51;;;;;;;1.40;1.30;;;14.10;77.00;;;;;;5055201;28;20439;-76
2022/11/11 16:17:19;;;;;;;1.40;1.30;;;14.00;77.20;;;;;;5056459;28;20431;-74
2022/11/11 16:19:47;;;;;;;1.47;1.37;;;14.00;77.30;;;;;;5055036;28;20442;-74
2022/11/11 16:22:19;;;;;;;1.33;1.23;;;13.90;77.40;;;;;;5054839;28;20458;-74
2022/11/11 16:24:48;;;;;;;1.40;1.30;;;13.90;77.50;;;;;;5054980;28;20434;-74
2022/11/11 16:27:18;;;;;;;1.53;1.43;;;13.80;77.60;;;;;;5056907;28;20470;-74
2022/11/11 16:29:45;;;;;;;1.13;1.03;;;13.70;77.80;;;;;;5063343;28;20453;-74
2022/11/11 16:32:33;;;;;;;1.20;1.10;;;13.70;77.80;;;;;;5063212;28;20486;-75
2022/11/11 16:35:00;;;;;;;1.23;1.13;;;13.60;77.90;;;;;;5061885;28;20509;-74
2022/11/11 16:37:28;;;;;;;1.47;1.20;;;13.60;78.10;;;;;;5061450;28;20455;-74
2022/11/11 16:39:56;;;;;;;0.90;0.90;;;13.50;78.10;;;;;;5061805;28;20550;-73
2022/11/11 16:42:25;;;;;;;1.10;1.03;;;13.50;78.30;;;;;;5061452;28;20475;-73
2022/11/11 16:44:57;;;;;;;1.17;1.07;;;13.40;78.50;;;;;;5061424;28;20443;-74
2022/11/11 16:47:49;;;;;;;1.00;1.00;;;13.40;78.50;;;;;;5061100;28;20453;-74
2022/11/11 16:50:19;;;;;;;1.10;0.77;;;13.40;78.50;;;;;;5057294;28;20533;-75
2022/11/11 16:52:51;;;;;;;0.80;0.80;;;13.30;78.70;;;;;;5060649;28;20486;-76
2022/11/11 16:55:29;;;;;;;0.83;0.83;;;13.20;78.70;;;;;;5057770;28;20798;-74
2022/11/11 16:57:56;;;;;;;0.80;0.80;;;13.20;78.50;;;;;;5054089;28;20914;-73
2022/11/11 17:00:24;;;;;;;1.00;0.90;;;13.20;78.70;;;;;;5054277;28;20450;-75
2022/11/11 17:03:09;;;;;;;0.73;0.73;;;13.10;78.90;;;;;;5054116;28;20451;-75
2022/11/11 17:05:51;;;;;;;0.90;0.90;;;13.10;78.80;;;;;;5053956;28;20928;-75
2022/11/11 17:08:35;;;;;;;0.77;0.77;;;13.00;79.00;;;;;;5053769;28;20953;-75
2022/11/11 17:11:06;;;;;;;0.70;0.70;;;13.00;79.00;;;;;;5053912;28;20473;-75
2022/11/11 17:13:34;;;;;;;0.70;0.70;;;13.00;79.00;;;;;;5053990;28;20447;-75
2022/11/11 17:16:03;;;;;;;1.10;0.93;;;13.00;78.90;;;;;;5054265;28;20443;-75
2022/11/11 17:18:32;;;;;;;0.80;0.80;;;12.90;79.00;;;;;;5053625;28;21003;-74
2022/11/11 17:20:59;;;;;;;1.43;1.00;;;12.90;79.00;;;;;;5053916;28;20466;-75
2022/11/11 17:23:26;;;;;;;1.10;0.90;;;12.90;79.00;;;;;;5053833;28;20469;-75
2022/11/11 17:25:54;;;;;;;0.80;0.80;;;12.80;79.00;;;;;;5053445;28;20450;-75
2022/11/11 17:28:23;;;;;;;1.23;1.10;;;12.80;79.00;;;;;;5053957;28;20450;-75
2022/11/11 17:30:50;;;;;;;1.13;1.03;;;12.80;79.00;;;;;;5053585;28;20830;-73
2022/11/11 17:33:16;;;;;;;1.20;0.93;;;12.80;79.00;;;;;;5053650;28;20483;-75
2022/11/11 17:35:51;;;;;;;0.80;0.80;;;12.80;78.70;;;;;;5053625;28;20454;-75
2022/11/11 17:38:17;;;;;;;0.97;0.97;;;12.70;78.70;;;;;;5053850;28;20463;-74
2022/11/11 17:40:45;;;;;;;1.20;1.10;;;12.70;78.70;;;;;;5053476;28;20472;-75
2022/11/11 17:43:12;;;;;;;0.80;0.80;;;12.70;78.70;;;;;;5053497;28;20505;-76
2022/11/11 17:45:40;;;;;;;1.00;0.90;;;12.60;78.70;;;;;;5053458;28;20443;-75
2022/11/11 17:48:08;;;;;;;1.10;1.00;;;12.60;78.90;;;;;;5052833;28;20957;-73
2022/11/11 17:50:39;;;;;;;1.03;1.00;;;12.60;79.10;;;;;;5053642;28;20450;-75
2022/11/11 17:53:07;;;;;;;1.10;1.00;;;12.50;79.10;;;;;;5053247;28;20477;-75
2022/11/11 17:55:34;;;;;;;1.00;0.90;;;12.50;79.20;;;;;;5053364;28;20443;-74
2022/11/11 17:58:01;;;;;;;1.00;0.80;;;12.50;79.20;;;;;;5053353;28;20461;-74
2022/11/11 18:00:28;;;;;;;1.17;1.07;;;12.40;79.40;;;;;;5053249;28;20859;-73
2022/11/11 18:02:57;;;;;;;0.83;0.83;;;12.40;79.40;;;;;;5057726;28;20458;-74
2022/11/11 18:05:23;;;;;;;0.80;0.80;;;12.40;79.50;;;;;;5061390;28;20453;-75
2022/11/11 18:07:50;;;;;;;1.00;1.00;;;12.40;79.40;;;;;;5061277;28;20447;-74
2022/11/11 18:10:17;;;;;;;0.90;0.87;;;12.40;79.60;;;;;;5060761;28;20817;-74